sensor_id;sensor_type;location;lat;lon;timestamp;P1;durP1;ratioP1;P2;durP2;ratioP2
74227;SDS011;62587;52.352;5.006;2022-11-18T00:00:12;2.13;;;1.30;;
74227;SDS011;62587;52.352;5.006;2022-11-18T00:02:38;2.53;;;1.40;;
74227;SDS011;62587;52.352;5.006;2022-11-18T00:05:03;2.40;;;1.30;;
74227;SDS011;62587;52.352;5.006;2022-11-18T00:07:29;3.83;;;1.55;;
74227;SDS011;62587;52.352;5.006;2022-11-18T00:09:54;2.60;;;1.20;;
74227;SDS011;62587;52.352;5.006;2022-11-18T00:12:19;4.00;;;1.50;;
74227;SDS011;62587;52.352;5.006;2022-11-18T00:15:03;2.20;;;1.63;;
74227;SDS011;62587;52.352;5.006;2022-11-18T00:17:30;1.70;;;1.10;;
74227;SDS011;62587;52.352;5.006;2022-11-18T00:19:57;2.92;;;1.10;;
74227;SDS011;62587;52.352;5.006;2022-11-18T00:22:22;2.50;;;1.45;;
74227;SDS011;62587;52.352;5.006;2022-11-18T00:24:47;5.40;;;1.20;;
74227;SDS011;62587;52.352;5.006;2022-11-18T00:27:13;3.30;;;1.37;;
74227;SDS011;62587;52.352;5.006;2022-11-18T00:29:38;3.10;;;1.52;;
74227;SDS011;62587;52.352;5.006;2022-11-18T00:32:04;2.40;;;1.50;;
74227;SDS011;62587;52.352;5.006;2022-11-18T00:34:29;3.20;;;1.48;;
74227;SDS011;62587;52.352;5.006;2022-11-18T00:36:54;2.20;;;1.50;;
74227;SDS011;62587;52.352;5.006;2022-11-18T00:39:20;2.40;;;1.40;;
74227;SDS011;62587;52.352;5.006;2022-11-18T00:41:45;3.10;;;1.40;;
74227;SDS011;62587;52.352;5.006;2022-11-18T00:44:30;2.60;;;1.20;;
74227;SDS011;62587;52.352;5.006;2022-11-18T00:46:55;1.55;;;1.20;;
74227;SDS011;62587;52.352;5.006;2022-11-18T00:49:21;3.55;;;1.38;;
74227;SDS011;62587;52.352;5.006;2022-11-18T00:51:46;4.00;;;1.92;;
74227;SDS011;62587;52.352;5.006;2022-11-18T00:54:12;2.50;;;0.97;;
74227;SDS011;62587;52.352;5.006;2022-11-18T00:56:37;2.22;;;1.23;;
74227;SDS011;62587;52.352;5.006;2022-11-18T00:59:02;2.90;;;1.27;;
74227;SDS011;62587;52.352;5.006;2022-11-18T01:01:28;4.50;;;1.40;;
74227;SDS011;62587;52.352;5.006;2022-11-18T01:03:53;2.97;;;1.67;;
74227;SDS011;62587;52.352;5.006;2022-11-18T01:06:19;3.75;;;1.83;;
74227;SDS011;62587;52.352;5.006;2022-11-18T01:08:44;2.15;;;1.00;;
74227;SDS011;62587;52.352;5.006;2022-11-18T01:11:09;3.75;;;1.67;;
74227;SDS011;62587;52.352;5.006;2022-11-18T01:13:54;2.45;;;1.20;;
74227;SDS011;62587;52.352;5.006;2022-11-18T01:16:23;4.35;;;1.13;;
74227;SDS011;62587;52.352;5.006;2022-11-18T01:18:50;2.38;;;1.60;;
74227;SDS011;62587;52.352;5.006;2022-11-18T01:21:15;2.75;;;1.40;;
74227;SDS011;62587;52.352;5.006;2022-11-18T01:23:41;1.88;;;1.00;;
74227;SDS011;62587;52.352;5.006;2022-11-18T01:26:07;3.03;;;1.20;;
74227;SDS011;62587;52.352;5.006;2022-11-18T01:28:34;3.03;;;1.40;;
74227;SDS011;62587;52.352;5.006;2022-11-18T01:31:07;2.22;;;1.10;;
74227;SDS011;62587;52.352;5.006;2022-11-18T01:33:40;2.63;;;1.10;;
74227;SDS011;62587;52.352;5.006;2022-11-18T01:39:01;1.83;;;1.10;;
74227;SDS011;62587;52.352;5.006;2022-11-18T01:41:27;2.97;;;1.50;;
74227;SDS011;62587;52.352;5.006;2022-11-18T01:46:26;2.67;;;1.30;;
74227;SDS011;62587;52.352;5.006;2022-11-18T01:49:06;3.00;;;1.38;;
74227;SDS011;62587;52.352;5.006;2022-11-18T01:51:36;2.03;;;1.15;;
74227;SDS011;62587;52.352;5.006;2022-11-18T01:54:09;1.83;;;1.20;;
74227;SDS011;62587;52.352;5.006;2022-11-18T01:56:44;2.42;;;1.33;;
74227;SDS011;62587;52.352;5.006;2022-11-18T01:59:16;1.40;;;0.90;;
74227;SDS011;62587;52.352;5.006;2022-11-18T02:01:45;2.28;;;1.27;;
74227;SDS011;62587;52.352;5.006;2022-11-18T02:04:11;3.22;;;1.10;;
74227;SDS011;62587;52.352;5.006;2022-11-18T02:06:38;1.85;;;1.00;;
74227;SDS011;62587;52.352;5.006;2022-11-18T02:09:05;2.38;;;1.10;;
74227;SDS011;62587;52.352;5.006;2022-11-18T02:11:30;2.78;;;1.30;;
74227;SDS011;62587;52.352;5.006;2022-11-18T02:14:15;2.47;;;1.38;;
74227;SDS011;62587;52.352;5.006;2022-11-18T02:24:49;1.88;;;1.05;;
74227;SDS011;62587;52.352;5.006;2022-11-18T02:30:15;2.85;;;1.15;;
74227;SDS011;62587;52.352;5.006;2022-11-18T02:32:42;2.05;;;1.00;;
74227;SDS011;62587;52.352;5.006;2022-11-18T02:35:21;1.77;;;1.00;;
74227;SDS011;62587;52.352;5.006;2022-11-18T02:38:26;2.88;;;1.02;;
74227;SDS011;62587;52.352;5.006;2022-11-18T02:40:55;2.00;;;1.10;;
74227;SDS011;62587;52.352;5.006;2022-11-18T02:43:27;2.78;;;1.08;;
74227;SDS011;62587;52.352;5.006;2022-11-18T02:45:59;1.63;;;1.02;;
74227;SDS011;62587;52.352;5.006;2022-11-18T02:48:29;1.20;;;0.90;;
74227;SDS011;62587;52.352;5.006;2022-11-18T02:50:58;1.60;;;1.10;;
74227;SDS011;62587;52.352;5.006;2022-11-18T02:53:27;2.42;;;1.08;;
74227;SDS011;62587;52.352;5.006;2022-11-18T02:55:56;1.48;;;0.90;;
74227;SDS011;62587;52.352;5.006;2022-11-18T02:58:23;2.45;;;1.00;;
74227;SDS011;62587;52.352;5.006;2022-11-18T03:00:53;1.73;;;1.05;;
74227;SDS011;62587;52.352;5.006;2022-11-18T03:05:53;1.50;;;0.98;;
74227;SDS011;62587;52.352;5.006;2022-11-18T03:08:26;1.40;;;1.00;;
74227;SDS011;62587;52.352;5.006;2022-11-18T03:11:19;1.83;;;0.90;;
74227;SDS011;62587;52.352;5.006;2022-11-18T03:16:42;2.75;;;1.10;;
74227;SDS011;62587;52.352;5.006;2022-11-18T03:21:46;1.83;;;1.00;;
74227;SDS011;62587;52.352;5.006;2022-11-18T03:24:30;1.20;;;0.98;;
74227;SDS011;62587;52.352;5.006;2022-11-18T03:27:03;2.38;;;1.02;;
74227;SDS011;62587;52.352;5.006;2022-11-18T03:29:37;2.03;;;1.00;;
74227;SDS011;62587;52.352;5.006;2022-11-18T03:32:08;1.88;;;1.00;;
74227;SDS011;62587;52.352;5.006;2022-11-18T03:34:41;1.38;;;0.90;;
74227;SDS011;62587;52.352;5.006;2022-11-18T03:37:11;2.13;;;0.90;;
74227;SDS011;62587;52.352;5.006;2022-11-18T03:39:45;1.50;;;1.08;;
74227;SDS011;62587;52.352;5.006;2022-11-18T03:42:15;1.40;;;1.00;;
74227;SDS011;62587;52.352;5.006;2022-11-18T03:44:53;1.30;;;1.00;;
74227;SDS011;62587;52.352;5.006;2022-11-18T03:47:31;1.20;;;0.80;;
74227;SDS011;62587;52.352;5.006;2022-11-18T03:50:01;1.73;;;1.05;;
74227;SDS011;62587;52.352;5.006;2022-11-18T03:52:31;1.45;;;1.05;;
74227;SDS011;62587;52.352;5.006;2022-11-18T03:55:01;1.75;;;1.10;;
74227;SDS011;62587;52.352;5.006;2022-11-18T04:00:42;2.40;;;1.48;;
74227;SDS011;62587;52.352;5.006;2022-11-18T04:03:11;1.27;;;0.93;;
74227;SDS011;62587;52.352;5.006;2022-11-18T04:05:38;1.10;;;0.90;;
74227;SDS011;62587;52.352;5.006;2022-11-18T04:08:06;1.92;;;1.00;;
74227;SDS011;62587;52.352;5.006;2022-11-18T04:10:38;1.60;;;0.75;;
74227;SDS011;62587;52.352;5.006;2022-11-18T04:13:22;1.92;;;0.90;;
74227;SDS011;62587;52.352;5.006;2022-11-18T04:15:52;1.92;;;0.98;;
74227;SDS011;62587;52.352;5.006;2022-11-18T04:18:18;1.58;;;1.00;;
74227;SDS011;62587;52.352;5.006;2022-11-18T04:20:43;1.33;;;0.90;;
74227;SDS011;62587;52.352;5.006;2022-11-18T04:23:09;2.40;;;0.85;;
74227;SDS011;62587;52.352;5.006;2022-11-18T04:25:34;1.92;;;1.05;;
74227;SDS011;62587;52.352;5.006;2022-11-18T04:28:00;1.88;;;1.13;;
74227;SDS011;62587;52.352;5.006;2022-11-18T04:30:26;1.75;;;1.02;;
74227;SDS011;62587;52.352;5.006;2022-11-18T04:32:51;1.65;;;1.10;;
74227;SDS011;62587;52.352;5.006;2022-11-18T04:35:16;1.50;;;0.93;;
74227;SDS011;62587;52.352;5.006;2022-11-18T04:37:42;1.63;;;1.30;;
74227;SDS011;62587;52.352;5.006;2022-11-18T04:40:07;1.67;;;1.10;;
74227;SDS011;62587;52.352;5.006;2022-11-18T04:42:33;1.50;;;1.00;;
74227;SDS011;62587;52.352;5.006;2022-11-18T04:44:58;1.30;;;0.80;;
74227;SDS011;62587;52.352;5.006;2022-11-18T04:47:24;1.63;;;0.82;;
74227;SDS011;62587;52.352;5.006;2022-11-18T04:49:49;1.30;;;0.80;;
74227;SDS011;62587;52.352;5.006;2022-11-18T04:52:15;1.58;;;0.80;;
74227;SDS011;62587;52.352;5.006;2022-11-18T04:54:41;1.85;;;1.10;;
74227;SDS011;62587;52.352;5.006;2022-11-18T04:57:06;1.50;;;0.80;;
74227;SDS011;62587;52.352;5.006;2022-11-18T04:59:31;1.85;;;0.80;;
74227;SDS011;62587;52.352;5.006;2022-11-18T05:01:57;1.95;;;1.10;;
74227;SDS011;62587;52.352;5.006;2022-11-18T05:04:25;1.85;;;1.30;;
74227;SDS011;62587;52.352;5.006;2022-11-18T05:06:54;1.15;;;0.90;;
74227;SDS011;62587;52.352;5.006;2022-11-18T05:09:19;1.42;;;0.90;;
74227;SDS011;62587;52.352;5.006;2022-11-18T05:11:45;1.58;;;0.95;;
74227;SDS011;62587;52.352;5.006;2022-11-18T05:14:29;1.80;;;1.00;;
74227;SDS011;62587;52.352;5.006;2022-11-18T05:16:57;2.78;;;0.90;;
74227;SDS011;62587;52.352;5.006;2022-11-18T05:19:24;2.10;;;0.90;;
74227;SDS011;62587;52.352;5.006;2022-11-18T05:21:50;2.00;;;1.10;;
74227;SDS011;62587;52.352;5.006;2022-11-18T05:24:16;1.95;;;1.10;;
74227;SDS011;62587;52.352;5.006;2022-11-18T05:26:42;2.35;;;1.00;;
74227;SDS011;62587;52.352;5.006;2022-11-18T05:29:07;1.88;;;1.10;;
74227;SDS011;62587;52.352;5.006;2022-11-18T05:31:32;2.17;;;1.13;;
74227;SDS011;62587;52.352;5.006;2022-11-18T05:33:58;1.92;;;1.33;;
74227;SDS011;62587;52.352;5.006;2022-11-18T05:36:23;1.50;;;1.10;;
74227;SDS011;62587;52.352;5.006;2022-11-18T05:38:49;1.90;;;1.00;;
74227;SDS011;62587;52.352;5.006;2022-11-18T05:41:15;1.70;;;1.20;;
74227;SDS011;62587;52.352;5.006;2022-11-18T05:44:00;2.30;;;1.20;;
74227;SDS011;62587;52.352;5.006;2022-11-18T05:46:27;1.75;;;1.08;;
74227;SDS011;62587;52.352;5.006;2022-11-18T05:48:53;1.88;;;0.98;;
74227;SDS011;62587;52.352;5.006;2022-11-18T05:51:18;2.33;;;1.10;;
74227;SDS011;62587;52.352;5.006;2022-11-18T05:53:44;2.10;;;1.05;;
74227;SDS011;62587;52.352;5.006;2022-11-18T05:56:18;0.93;;;0.80;;
74227;SDS011;62587;52.352;5.006;2022-11-18T06:03:37;1.30;;;0.90;;
74227;SDS011;62587;52.352;5.006;2022-11-18T06:06:04;2.25;;;1.10;;
74227;SDS011;62587;52.352;5.006;2022-11-18T06:09:14;1.92;;;1.10;;
74227;SDS011;62587;52.352;5.006;2022-11-18T06:11:26;1.88;;;1.15;;
74227;SDS011;62587;52.352;5.006;2022-11-18T06:13:56;1.63;;;1.00;;
74227;SDS011;62587;52.352;5.006;2022-11-18T06:16:29;1.88;;;1.00;;
74227;SDS011;62587;52.352;5.006;2022-11-18T06:18:58;1.80;;;1.10;;
74227;SDS011;62587;52.352;5.006;2022-11-18T06:21:25;2.67;;;1.30;;
74227;SDS011;62587;52.352;5.006;2022-11-18T06:23:50;2.63;;;1.00;;
74227;SDS011;62587;52.352;5.006;2022-11-18T06:26:16;1.60;;;0.90;;
74227;SDS011;62587;52.352;5.006;2022-11-18T06:28:42;2.33;;;1.10;;
74227;SDS011;62587;52.352;5.006;2022-11-18T06:31:10;1.75;;;1.02;;
74227;SDS011;62587;52.352;5.006;2022-11-18T06:33:35;1.80;;;0.83;;
74227;SDS011;62587;52.352;5.006;2022-11-18T06:36:01;1.55;;;1.00;;
74227;SDS011;62587;52.352;5.006;2022-11-18T06:38:27;2.50;;;1.25;;
74227;SDS011;62587;52.352;5.006;2022-11-18T06:40:53;1.40;;;0.93;;
74227;SDS011;62587;52.352;5.006;2022-11-18T06:43:23;1.40;;;0.90;;
74227;SDS011;62587;52.352;5.006;2022-11-18T06:48:48;1.75;;;0.98;;
74227;SDS011;62587;52.352;5.006;2022-11-18T06:51:13;1.83;;;1.13;;
74227;SDS011;62587;52.352;5.006;2022-11-18T06:53:38;1.73;;;1.10;;
74227;SDS011;62587;52.352;5.006;2022-11-18T06:56:08;1.47;;;0.90;;
74227;SDS011;62587;52.352;5.006;2022-11-18T06:58:34;1.75;;;1.13;;
74227;SDS011;62587;52.352;5.006;2022-11-18T07:01:16;1.52;;;0.98;;
74227;SDS011;62587;52.352;5.006;2022-11-18T07:03:43;2.42;;;1.20;;
74227;SDS011;62587;52.352;5.006;2022-11-18T07:06:09;2.13;;;1.27;;
74227;SDS011;62587;52.352;5.006;2022-11-18T07:08:36;1.67;;;1.10;;
74227;SDS011;62587;52.352;5.006;2022-11-18T07:11:04;2.22;;;1.05;;
74227;SDS011;62587;52.352;5.006;2022-11-18T07:13:31;1.52;;;0.95;;
74227;SDS011;62587;52.352;5.006;2022-11-18T07:16:04;1.90;;;1.17;;
74227;SDS011;62587;52.352;5.006;2022-11-18T07:18:31;1.50;;;0.90;;
74227;SDS011;62587;52.352;5.006;2022-11-18T07:21:01;1.90;;;0.90;;
74227;SDS011;62587;52.352;5.006;2022-11-18T07:23:31;1.25;;;0.80;;
74227;SDS011;62587;52.352;5.006;2022-11-18T07:25:57;1.70;;;0.80;;
74227;SDS011;62587;52.352;5.006;2022-11-18T07:28:23;1.85;;;1.00;;
74227;SDS011;62587;52.352;5.006;2022-11-18T07:30:48;2.60;;;1.00;;
74227;SDS011;62587;52.352;5.006;2022-11-18T07:33:14;1.38;;;0.95;;
74227;SDS011;62587;52.352;5.006;2022-11-18T07:35:39;0.97;;;0.70;;
74227;SDS011;62587;52.352;5.006;2022-11-18T07:38:04;1.07;;;0.90;;
74227;SDS011;62587;52.352;5.006;2022-11-18T07:40:30;1.67;;;0.80;;
74227;SDS011;62587;52.352;5.006;2022-11-18T07:42:55;1.80;;;0.98;;
74227;SDS011;62587;52.352;5.006;2022-11-18T07:45:20;1.50;;;0.87;;
74227;SDS011;62587;52.352;5.006;2022-11-18T07:47:46;2.00;;;1.10;;
74227;SDS011;62587;52.352;5.006;2022-11-18T07:50:11;3.00;;;1.20;;
74227;SDS011;62587;52.352;5.006;2022-11-18T07:52:36;2.07;;;0.90;;
74227;SDS011;62587;52.352;5.006;2022-11-18T07:55:02;1.03;;;0.77;;
74227;SDS011;62587;52.352;5.006;2022-11-18T07:57:27;1.83;;;0.90;;
74227;SDS011;62587;52.352;5.006;2022-11-18T07:59:53;2.63;;;0.98;;
74227;SDS011;62587;52.352;5.006;2022-11-18T08:02:18;2.90;;;0.90;;
74227;SDS011;62587;52.352;5.006;2022-11-18T08:04:43;2.03;;;0.90;;
74227;SDS011;62587;52.352;5.006;2022-11-18T08:07:09;2.25;;;1.45;;
74227;SDS011;62587;52.352;5.006;2022-11-18T08:09:34;1.38;;;0.80;;
74227;SDS011;62587;52.352;5.006;2022-11-18T08:11:59;1.70;;;0.75;;
74227;SDS011;62587;52.352;5.006;2022-11-18T08:14:25;2.00;;;0.83;;
74227;SDS011;62587;52.352;5.006;2022-11-18T08:16:52;1.80;;;1.20;;
74227;SDS011;62587;52.352;5.006;2022-11-18T08:19:18;1.40;;;0.80;;
74227;SDS011;62587;52.352;5.006;2022-11-18T08:21:44;1.10;;;0.70;;
74227;SDS011;62587;52.352;5.006;2022-11-18T08:24:09;2.22;;;0.90;;
74227;SDS011;62587;52.352;5.006;2022-11-18T08:26:34;1.57;;;0.90;;
74227;SDS011;62587;52.352;5.006;2022-11-18T08:29:00;2.22;;;0.98;;
74227;SDS011;62587;52.352;5.006;2022-11-18T08:31:26;3.38;;;1.05;;
74227;SDS011;62587;52.352;5.006;2022-11-18T08:33:56;1.23;;;0.85;;
74227;SDS011;62587;52.352;5.006;2022-11-18T08:36:24;1.65;;;0.90;;
74227;SDS011;62587;52.352;5.006;2022-11-18T08:38:51;2.17;;;0.82;;
74227;SDS011;62587;52.352;5.006;2022-11-18T08:41:35;1.52;;;0.80;;
74227;SDS011;62587;52.352;5.006;2022-11-18T08:44:03;2.72;;;0.90;;
74227;SDS011;62587;52.352;5.006;2022-11-18T08:46:29;1.45;;;0.80;;
74227;SDS011;62587;52.352;5.006;2022-11-18T08:48:55;1.27;;;0.60;;
74227;SDS011;62587;52.352;5.006;2022-11-18T08:51:21;1.80;;;1.17;;
74227;SDS011;62587;52.352;5.006;2022-11-18T08:53:46;2.20;;;0.93;;
74227;SDS011;62587;52.352;5.006;2022-11-18T08:56:13;1.88;;;0.85;;
74227;SDS011;62587;52.352;5.006;2022-11-18T08:58:40;2.25;;;0.60;;
74227;SDS011;62587;52.352;5.006;2022-11-18T09:01:07;1.83;;;1.00;;
74227;SDS011;62587;52.352;5.006;2022-11-18T09:03:33;1.92;;;0.70;;
74227;SDS011;62587;52.352;5.006;2022-11-18T09:06:11;2.28;;;0.70;;
74227;SDS011;62587;52.352;5.006;2022-11-18T09:08:39;2.42;;;0.90;;
74227;SDS011;62587;52.352;5.006;2022-11-18T09:11:06;1.88;;;0.93;;
74227;SDS011;62587;52.352;5.006;2022-11-18T09:13:32;1.35;;;0.80;;
74227;SDS011;62587;52.352;5.006;2022-11-18T09:15:58;2.58;;;0.70;;
74227;SDS011;62587;52.352;5.006;2022-11-18T09:18:25;2.55;;;0.90;;
74227;SDS011;62587;52.352;5.006;2022-11-18T09:20:54;1.98;;;1.10;;
74227;SDS011;62587;52.352;5.006;2022-11-18T09:23:20;1.30;;;0.80;;
74227;SDS011;62587;52.352;5.006;2022-11-18T09:25:46;2.53;;;1.10;;
74227;SDS011;62587;52.352;5.006;2022-11-18T09:28:11;1.20;;;0.80;;
74227;SDS011;62587;52.352;5.006;2022-11-18T09:30:37;1.92;;;1.00;;
74227;SDS011;62587;52.352;5.006;2022-11-18T09:33:02;2.47;;;0.80;;
74227;SDS011;62587;52.352;5.006;2022-11-18T09:35:27;1.60;;;0.80;;
74227;SDS011;62587;52.352;5.006;2022-11-18T09:37:53;1.53;;;1.00;;
74227;SDS011;62587;52.352;5.006;2022-11-18T09:40:18;1.63;;;0.70;;
74227;SDS011;62587;52.352;5.006;2022-11-18T09:43:27;2.53;;;0.90;;
74227;SDS011;62587;52.352;5.006;2022-11-18T09:45:43;2.58;;;0.93;;
74227;SDS011;62587;52.352;5.006;2022-11-18T09:48:17;1.45;;;0.90;;
74227;SDS011;62587;52.352;5.006;2022-11-18T09:50:44;1.45;;;0.80;;
74227;SDS011;62587;52.352;5.006;2022-11-18T09:53:16;3.33;;;0.88;;
74227;SDS011;62587;52.352;5.006;2022-11-18T09:58:17;1.55;;;0.95;;
74227;SDS011;62587;52.352;5.006;2022-11-18T10:00:47;1.80;;;0.90;;
74227;SDS011;62587;52.352;5.006;2022-11-18T10:03:21;2.15;;;0.73;;
74227;SDS011;62587;52.352;5.006;2022-11-18T10:08:30;1.50;;;1.15;;
74227;SDS011;62587;52.352;5.006;2022-11-18T10:13:37;1.98;;;1.10;;
74227;SDS011;62587;52.352;5.006;2022-11-18T10:18:59;1.88;;;0.90;;
74227;SDS011;62587;52.352;5.006;2022-11-18T10:24:38;2.78;;;1.23;;
74227;SDS011;62587;52.352;5.006;2022-11-18T10:27:11;6.18;;;1.00;;
74227;SDS011;62587;52.352;5.006;2022-11-18T10:29:39;1.80;;;1.08;;
74227;SDS011;62587;52.352;5.006;2022-11-18T10:32:06;1.65;;;1.00;;
74227;SDS011;62587;52.352;5.006;2022-11-18T10:34:34;2.95;;;0.90;;
74227;SDS011;62587;52.352;5.006;2022-11-18T10:37:22;2.28;;;0.80;;
74227;SDS011;62587;52.352;5.006;2022-11-18T10:39:51;1.85;;;1.00;;
74227;SDS011;62587;52.352;5.006;2022-11-18T10:42:26;1.75;;;0.82;;
74227;SDS011;62587;52.352;5.006;2022-11-18T10:44:54;1.60;;;1.10;;
74227;SDS011;62587;52.352;5.006;2022-11-18T10:47:22;1.70;;;1.00;;
74227;SDS011;62587;52.352;5.006;2022-11-18T10:49:51;2.58;;;1.20;;
74227;SDS011;62587;52.352;5.006;2022-11-18T10:52:17;2.17;;;1.00;;
74227;SDS011;62587;52.352;5.006;2022-11-18T10:54:43;1.73;;;0.98;;
74227;SDS011;62587;52.352;5.006;2022-11-18T10:57:13;2.75;;;1.02;;
74227;SDS011;62587;52.352;5.006;2022-11-18T10:59:51;2.92;;;1.10;;
74227;SDS011;62587;52.352;5.006;2022-11-18T11:02:20;2.45;;;1.10;;
74227;SDS011;62587;52.352;5.006;2022-11-18T11:04:48;1.90;;;1.20;;
74227;SDS011;62587;52.352;5.006;2022-11-18T11:07:16;2.15;;;1.20;;
74227;SDS011;62587;52.352;5.006;2022-11-18T11:09:59;1.60;;;0.70;;
74227;SDS011;62587;52.352;5.006;2022-11-18T11:12:26;1.73;;;0.75;;
74227;SDS011;62587;52.352;5.006;2022-11-18T11:14:56;2.33;;;1.00;;
74227;SDS011;62587;52.352;5.006;2022-11-18T11:17:36;2.65;;;1.05;;
74227;SDS011;62587;52.352;5.006;2022-11-18T11:22:41;1.40;;;0.75;;
74227;SDS011;62587;52.352;5.006;2022-11-18T11:25:14;1.58;;;0.85;;
74227;SDS011;62587;52.352;5.006;2022-11-18T11:30:20;2.03;;;0.88;;
74227;SDS011;62587;52.352;5.006;2022-11-18T11:38:34;2.13;;;1.10;;
74227;SDS011;62587;52.352;5.006;2022-11-18T11:43:57;1.63;;;0.88;;
74227;SDS011;62587;52.352;5.006;2022-11-18T12:03:52;2.22;;;0.90;;
74227;SDS011;62587;52.352;5.006;2022-11-18T12:06:34;2.45;;;1.10;;
74227;SDS011;62587;52.352;5.006;2022-11-18T12:19:18;2.00;;;1.30;;
74227;SDS011;62587;52.352;5.006;2022-11-18T12:26:58;2.40;;;1.10;;
74227;SDS011;62587;52.352;5.006;2022-11-18T12:29:24;1.85;;;1.20;;
74227;SDS011;62587;52.352;5.006;2022-11-18T12:31:58;2.10;;;1.00;;
74227;SDS011;62587;52.352;5.006;2022-11-18T12:34:41;1.85;;;1.20;;
74227;SDS011;62587;52.352;5.006;2022-11-18T12:39:46;2.47;;;0.93;;
74227;SDS011;62587;52.352;5.006;2022-11-18T12:42:55;1.58;;;0.80;;
74227;SDS011;62587;52.352;5.006;2022-11-18T12:50:48;2.10;;;1.20;;
74227;SDS011;62587;52.352;5.006;2022-11-18T12:53:29;3.00;;;1.40;;
74227;SDS011;62587;52.352;5.006;2022-11-18T12:56:22;2.53;;;1.50;;
74227;SDS011;62587;52.352;5.006;2022-11-18T12:58:51;1.92;;;1.13;;
74227;SDS011;62587;52.352;5.006;2022-11-18T13:01:25;1.90;;;1.27;;
74227;SDS011;62587;52.352;5.006;2022-11-18T13:04:04;1.75;;;1.40;;
74227;SDS011;62587;52.352;5.006;2022-11-18T13:06:38;3.03;;;1.33;;
74227;SDS011;62587;52.352;5.006;2022-11-18T13:09:06;2.85;;;1.15;;
74227;SDS011;62587;52.352;5.006;2022-11-18T13:11:48;2.33;;;1.15;;
74227;SDS011;62587;52.352;5.006;2022-11-18T13:14:17;2.03;;;1.15;;
74227;SDS011;62587;52.352;5.006;2022-11-18T13:23:20;2.10;;;1.30;;
74227;SDS011;62587;52.352;5.006;2022-11-18T13:26:17;3.05;;;1.30;;
74227;SDS011;62587;52.352;5.006;2022-11-18T13:31:28;1.98;;;1.40;;
74227;SDS011;62587;52.352;5.006;2022-11-18T13:34:00;2.50;;;1.58;;
74227;SDS011;62587;52.352;5.006;2022-11-18T13:36:27;2.17;;;1.30;;
74227;SDS011;62587;52.352;5.006;2022-11-18T13:38:56;2.42;;;1.30;;
74227;SDS011;62587;52.352;5.006;2022-11-18T13:41:23;2.10;;;1.30;;
74227;SDS011;62587;52.352;5.006;2022-11-18T13:44:18;1.50;;;1.17;;
74227;SDS011;62587;52.352;5.006;2022-11-18T13:46:48;3.03;;;1.70;;
74227;SDS011;62587;52.352;5.006;2022-11-18T13:49:21;2.38;;;1.42;;
74227;SDS011;62587;52.352;5.006;2022-11-18T13:51:52;2.95;;;1.48;;
74227;SDS011;62587;52.352;5.006;2022-11-18T13:54:21;2.88;;;1.40;;
74227;SDS011;62587;52.352;5.006;2022-11-18T13:56:49;2.47;;;1.15;;
74227;SDS011;62587;52.352;5.006;2022-11-18T13:59:16;3.25;;;1.45;;
74227;SDS011;62587;52.352;5.006;2022-11-18T14:01:45;3.35;;;1.90;;
74227;SDS011;62587;52.352;5.006;2022-11-18T14:04:18;2.25;;;1.60;;
74227;SDS011;62587;52.352;5.006;2022-11-18T14:06:45;2.58;;;1.77;;
74227;SDS011;62587;52.352;5.006;2022-11-18T14:09:16;2.53;;;1.50;;
74227;SDS011;62587;52.352;5.006;2022-11-18T14:14:31;2.30;;;1.45;;
74227;SDS011;62587;52.352;5.006;2022-11-18T14:17:14;2.78;;;1.73;;
74227;SDS011;62587;52.352;5.006;2022-11-18T14:19:39;3.08;;;1.70;;
74227;SDS011;62587;52.352;5.006;2022-11-18T14:22:09;2.83;;;1.67;;
74227;SDS011;62587;52.352;5.006;2022-11-18T14:24:38;2.95;;;1.80;;
74227;SDS011;62587;52.352;5.006;2022-11-18T14:29:52;2.00;;;1.60;;
74227;SDS011;62587;52.352;5.006;2022-11-18T14:32:17;2.87;;;1.67;;
74227;SDS011;62587;52.352;5.006;2022-11-18T14:34:43;2.08;;;1.55;;
74227;SDS011;62587;52.352;5.006;2022-11-18T14:37:08;3.40;;;2.07;;
74227;SDS011;62587;52.352;5.006;2022-11-18T14:39:36;2.22;;;1.80;;
74227;SDS011;62587;52.352;5.006;2022-11-18T14:42:02;4.10;;;2.20;;
74227;SDS011;62587;52.352;5.006;2022-11-18T14:44:29;3.45;;;2.15;;
74227;SDS011;62587;52.352;5.006;2022-11-18T14:46:58;3.25;;;2.25;;
74227;SDS011;62587;52.352;5.006;2022-11-18T14:49:28;3.80;;;2.13;;
74227;SDS011;62587;52.352;5.006;2022-11-18T14:51:55;3.40;;;2.13;;
74227;SDS011;62587;52.352;5.006;2022-11-18T14:54:22;3.13;;;2.50;;
74227;SDS011;62587;52.352;5.006;2022-11-18T14:56:49;2.72;;;1.85;;
74227;SDS011;62587;52.352;5.006;2022-11-18T14:59:16;3.13;;;2.10;;
74227;SDS011;62587;52.352;5.006;2022-11-18T15:01:43;2.60;;;2.25;;
74227;SDS011;62587;52.352;5.006;2022-11-18T15:04:10;4.32;;;1.98;;
74227;SDS011;62587;52.352;5.006;2022-11-18T15:06:36;2.97;;;1.95;;
74227;SDS011;62587;52.352;5.006;2022-11-18T15:09:02;3.35;;;1.88;;
74227;SDS011;62587;52.352;5.006;2022-11-18T15:11:29;2.80;;;2.25;;
74227;SDS011;62587;52.352;5.006;2022-11-18T15:13:54;3.85;;;2.40;;
74227;SDS011;62587;52.352;5.006;2022-11-18T15:16:20;3.43;;;2.20;;
74227;SDS011;62587;52.352;5.006;2022-11-18T15:18:51;3.50;;;2.45;;
74227;SDS011;62587;52.352;5.006;2022-11-18T15:21:19;2.92;;;1.88;;
74227;SDS011;62587;52.352;5.006;2022-11-18T15:23:44;4.40;;;2.25;;
74227;SDS011;62587;52.352;5.006;2022-11-18T15:26:20;3.08;;;2.25;;
74227;SDS011;62587;52.352;5.006;2022-11-18T15:28:51;3.00;;;2.28;;
74227;SDS011;62587;52.352;5.006;2022-11-18T15:31:19;4.32;;;2.33;;
74227;SDS011;62587;52.352;5.006;2022-11-18T15:33:45;2.63;;;2.20;;
74227;SDS011;62587;52.352;5.006;2022-11-18T15:36:11;2.90;;;2.50;;
74227;SDS011;62587;52.352;5.006;2022-11-18T15:38:38;3.45;;;2.40;;
74227;SDS011;62587;52.352;5.006;2022-11-18T15:41:04;2.83;;;2.00;;
74227;SDS011;62587;52.352;5.006;2022-11-18T15:43:30;5.13;;;2.20;;
74227;SDS011;62587;52.352;5.006;2022-11-18T15:45:56;4.03;;;2.50;;
74227;SDS011;62587;52.352;5.006;2022-11-18T15:48:22;3.38;;;2.40;;
74227;SDS011;62587;52.352;5.006;2022-11-18T15:50:47;2.60;;;2.40;;
74227;SDS011;62587;52.352;5.006;2022-11-18T15:53:13;2.90;;;2.60;;
74227;SDS011;62587;52.352;5.006;2022-11-18T15:55:38;3.53;;;2.92;;
74227;SDS011;62587;52.352;5.006;2022-11-18T15:58:04;3.22;;;2.50;;
74227;SDS011;62587;52.352;5.006;2022-11-18T16:00:29;2.50;;;1.90;;
74227;SDS011;62587;52.352;5.006;2022-11-18T16:02:54;2.70;;;2.40;;
74227;SDS011;62587;52.352;5.006;2022-11-18T16:05:19;2.60;;;2.40;;
74227;SDS011;62587;52.352;5.006;2022-11-18T16:07:45;3.07;;;2.77;;
74227;SDS011;62587;52.352;5.006;2022-11-18T16:10:12;3.10;;;2.80;;
74227;SDS011;62587;52.352;5.006;2022-11-18T16:12:55;4.72;;;2.75;;
74227;SDS011;62587;52.352;5.006;2022-11-18T16:15:21;2.63;;;2.40;;
74227;SDS011;62587;52.352;5.006;2022-11-18T16:18:05;3.25;;;2.53;;
74227;SDS011;62587;52.352;5.006;2022-11-18T16:20:30;4.80;;;2.78;;
74227;SDS011;62587;52.352;5.006;2022-11-18T16:22:56;2.40;;;2.20;;
74227;SDS011;62587;52.352;5.006;2022-11-18T16:25:21;3.40;;;3.10;;
74227;SDS011;62587;52.352;5.006;2022-11-18T16:27:47;3.28;;;2.67;;
74227;SDS011;62587;52.352;5.006;2022-11-18T16:30:13;3.67;;;2.78;;
74227;SDS011;62587;52.352;5.006;2022-11-18T16:32:57;3.53;;;2.60;;
74227;SDS011;62587;52.352;5.006;2022-11-18T16:35:23;3.33;;;2.90;;
74227;SDS011;62587;52.352;5.006;2022-11-18T16:37:48;3.17;;;2.90;;
74227;SDS011;62587;52.352;5.006;2022-11-18T16:40:13;2.87;;;2.37;;
74227;SDS011;62587;52.352;5.006;2022-11-18T16:42:39;3.30;;;2.50;;
74227;SDS011;62587;52.352;5.006;2022-11-18T16:45:04;3.63;;;3.33;;
74227;SDS011;62587;52.352;5.006;2022-11-18T16:47:30;3.85;;;2.80;;
74227;SDS011;62587;52.352;5.006;2022-11-18T16:49:55;3.37;;;3.00;;
74227;SDS011;62587;52.352;5.006;2022-11-18T16:52:21;4.07;;;2.80;;
74227;SDS011;62587;52.352;5.006;2022-11-18T16:54:46;3.57;;;2.63;;
74227;SDS011;62587;52.352;5.006;2022-11-18T16:57:11;3.10;;;2.60;;